Time;durP1;ratioP1;P1;durP2;ratioP2;P2;SDS_P1;SDS_P2;PMS_P1;PMS_P2;Temp;Humidity;BMP_temperature;BMP_pressure;BME280_temperature;BME280_humidity;BME280_pressure;Samples;Min_cycle;Max_cycle;Signal;HPM_P1;HPM_P2
2022/03/02 00:01:37;;;;;;;37.90;32.22;;;7.00;99.90;;;;;;6207259;23;20044;-77
2022/03/02 00:04:03;;;;;;;37.83;32.33;;;7.00;99.90;;;;;;6183778;23;20107;-78
2022/03/02 00:06:29;;;;;;;42.03;33.38;;;6.90;99.90;;;;;;6182482;23;20455;-77
2022/03/02 00:08:55;;;;;;;39.95;32.40;;;6.90;99.90;;;;;;6182682;23;20016;-77
2022/03/02 00:11:20;;;;;;;40.92;33.45;;;6.90;99.90;;;;;;6210810;23;20024;-77
2022/03/02 00:13:46;;;;;;;38.83;33.22;;;6.90;99.90;;;;;;6184189;23;20013;-78
2022/03/02 00:16:12;;;;;;;39.92;32.67;;;6.90;99.90;;;;;;6208742;23;20104;-78
2022/03/02 00:18:39;;;;;;;41.63;32.17;;;6.90;99.90;;;;;;6184828;23;20096;-77
2022/03/02 00:21:04;;;;;;;39.60;33.60;;;6.90;99.90;;;;;;6183391;23;20639;-78
2022/03/02 00:23:30;;;;;;;42.97;34.05;;;6.90;99.90;;;;;;6183552;23;20046;-78
2022/03/02 00:25:56;;;;;;;40.15;33.50;;;6.90;99.90;;;;;;6182583;23;20023;-77
2022/03/02 00:28:23;;;;;;;38.50;33.55;;;6.90;99.90;;;;;;6183243;23;20013;-78
2022/03/02 00:30:49;;;;;;;38.85;32.97;;;6.90;99.90;;;;;;6182688;23;20019;-78
2022/03/02 00:33:14;;;;;;;40.42;33.08;;;6.90;99.90;;;;;;6183709;23;20144;-77
2022/03/02 00:35:41;;;;;;;42.08;33.92;;;6.90;99.90;;;;;;6210388;23;20422;-78
2022/03/02 00:38:10;;;;;;;42.97;35.00;;;6.80;99.90;;;;;;6210741;23;20100;-77
2022/03/02 00:40:36;;;;;;;40.45;32.65;;;6.80;99.90;;;;;;6183910;23;20016;-77
2022/03/02 00:43:02;;;;;;;40.97;33.40;;;6.80;99.90;;;;;;6184912;23;20019;-77
2022/03/02 00:45:27;;;;;;;38.40;33.25;;;6.80;99.90;;;;;;6182358;23;20104;-77
2022/03/02 00:47:53;;;;;;;40.20;34.17;;;6.80;99.90;;;;;;6209868;23;20017;-78
2022/03/02 00:50:19;;;;;;;41.97;34.42;;;6.80;99.90;;;;;;6182831;23;20493;-78
2022/03/02 00:52:45;;;;;;;40.13;33.33;;;6.80;99.90;;;;;;6211543;23;20090;-77
2022/03/02 00:55:11;;;;;;;42.05;33.22;;;6.80;99.90;;;;;;6182834;23;20016;-77
2022/03/02 00:57:37;;;;;;;42.88;34.58;;;6.70;99.90;;;;;;6182457;23;20314;-77
2022/03/02 01:00:05;;;;;;;42.55;34.03;;;6.70;99.90;;;;;;6209322;23;20498;-77
2022/03/02 01:02:30;;;;;;;;;;;6.70;99.90;;;;;;6209760;23;20048;-78
2022/03/02 01:04:56;;;;;;;40.65;34.45;;;6.70;99.90;;;;;;6207721;23;19927;-77
2022/03/02 01:07:21;;;;;;;43.63;35.38;;;6.60;99.90;;;;;;6182713;23;20040;-77
2022/03/02 01:09:47;;;;;;;40.83;33.85;;;6.60;99.90;;;;;;6182902;23;20032;-77
2022/03/02 01:12:13;;;;;;;41.65;33.58;;;6.60;99.90;;;;;;6210410;23;20013;-77
2022/03/02 01:14:38;;;;;;;42.95;33.45;;;6.60;99.90;;;;;;6183168;23;20475;-78
2022/03/02 01:17:04;;;;;;;38.40;32.25;;;6.60;99.90;;;;;;6184166;23;20549;-77
2022/03/02 01:19:30;;;;;;;41.50;33.83;;;6.50;99.90;;;;;;6210569;23;20607;-77
2022/03/02 01:21:55;;;;;;;43.17;34.80;;;6.50;99.90;;;;;;6210044;23;20412;-77
2022/03/02 01:24:21;;;;;;;45.63;34.45;;;6.50;99.90;;;;;;6184757;23;20400;-77
2022/03/02 01:26:47;;;;;;;41.17;33.78;;;6.50;99.90;;;;;;6182493;23;20463;-77
2022/03/02 01:29:13;;;;;;;42.38;34.53;;;6.50;99.90;;;;;;6210891;23;20547;-78
2022/03/02 01:31:38;;;;;;;42.80;34.33;;;6.50;99.90;;;;;;6183954;23;20452;-77
2022/03/02 01:34:04;;;;;;;43.95;35.30;;;6.50;99.90;;;;;;6184072;23;20020;-78
2022/03/02 01:36:30;;;;;;;41.35;34.53;;;6.50;99.90;;;;;;6184005;23;20085;-77
2022/03/02 01:38:56;;;;;;;43.90;35.08;;;6.50;99.90;;;;;;6209741;23;20020;-77
2022/03/02 01:41:24;;;;;;;44.95;34.70;;;6.50;99.90;;;;;;6211290;23;20027;-77
2022/03/02 01:43:51;;;;;;;41.63;34.08;;;6.50;99.90;;;;;;6183466;23;20528;-77
2022/03/02 01:46:18;;;;;;;;;;;6.50;99.90;;;;;;6183821;23;20351;-77
2022/03/02 01:48:44;;;;;;;43.78;33.72;;;6.40;99.90;;;;;;6211267;23;19916;-77
2022/03/02 01:51:11;;;;;;;42.15;34.97;;;6.40;99.90;;;;;;6184308;23;20017;-77
2022/03/02 01:53:36;;;;;;;45.40;35.42;;;6.40;99.90;;;;;;6183647;23;20005;-77
2022/03/02 01:56:03;;;;;;;44.20;34.58;;;6.40;99.90;;;;;;6183273;23;20496;-77
2022/03/02 01:58:30;;;;;;;42.03;33.60;;;6.40;99.90;;;;;;6183924;23;20013;-78
2022/03/02 02:00:57;;;;;;;41.13;34.65;;;6.40;99.90;;;;;;6181943;23;20091;-77
2022/03/02 02:03:23;;;;;;;43.05;35.90;;;6.40;99.90;;;;;;6208489;23;20017;-77
2022/03/02 02:05:49;;;;;;;40.42;33.92;;;6.30;99.90;;;;;;6183474;23;20353;-77
2022/03/02 02:08:15;;;;;;;44.50;34.42;;;6.30;99.90;;;;;;6209851;23;20387;-77
2022/03/02 02:10:41;;;;;;;41.85;33.50;;;6.30;99.90;;;;;;6183512;23;20019;-78
2022/03/02 02:13:06;;;;;;;42.47;35.13;;;6.30;99.90;;;;;;6183868;23;20124;-78
2022/03/02 02:15:32;;;;;;;43.13;34.92;;;6.20;99.90;;;;;;6209428;23;20023;-78
2022/03/02 02:17:58;;;;;;;41.97;34.22;;;6.20;99.90;;;;;;6182408;23;20032;-78
2022/03/02 02:20:23;;;;;;;40.35;33.33;;;6.20;99.90;;;;;;6210333;23;20349;-78
2022/03/02 02:22:50;;;;;;;43.90;35.88;;;6.20;99.90;;;;;;6182528;23;20012;-78
2022/03/02 02:25:16;;;;;;;42.67;34.22;;;6.10;99.90;;;;;;6210686;23;20545;-77
2022/03/02 02:27:44;;;;;;;43.08;34.72;;;6.10;99.90;;;;;;6210323;23;20023;-77
2022/03/02 02:30:12;;;;;;;43.55;35.20;;;6.10;99.90;;;;;;6182823;23;20067;-77
2022/03/02 02:32:38;;;;;;;42.92;35.35;;;6.10;99.90;;;;;;6184059;23;20388;-78
2022/03/02 02:35:05;;;;;;;40.95;34.13;;;6.10;99.90;;;;;;6184279;23;20538;-78
2022/03/02 02:37:33;;;;;;;42.75;34.22;;;6.10;99.90;;;;;;6210412;23;20087;-78
2022/03/02 02:39:59;;;;;;;;;;;6.10;99.90;;;;;;6183563;23;20047;-77
2022/03/02 02:42:25;;;;;;;41.83;32.95;;;6.00;99.90;;;;;;6182968;23;20161;-77
2022/03/02 02:44:52;;;;;;;43.55;33.92;;;6.00;99.90;;;;;;6183297;23;20079;-78
2022/03/02 02:47:17;;;;;;;40.05;32.80;;;6.00;99.90;;;;;;6210155;23;20016;-77
2022/03/02 02:49:43;;;;;;;41.28;34.28;;;6.00;99.90;;;;;;6182159;23;20013;-77
2022/03/02 02:52:09;;;;;;;42.95;34.40;;;6.00;99.90;;;;;;6210669;23;20102;-77
2022/03/02 02:54:34;;;;;;;46.55;33.95;;;5.90;99.90;;;;;;6210717;23;20017;-77
2022/03/02 02:57:00;;;;;;;41.33;33.67;;;6.00;99.90;;;;;;6207484;23;20020;-77
2022/03/02 02:59:25;;;;;;;43.90;34.85;;;6.00;99.90;;;;;;6183783;23;20032;-78
2022/03/02 03:01:51;;;;;;;41.58;34.17;;;6.00;99.90;;;;;;6209423;23;20455;-78
2022/03/02 03:04:17;;;;;;;42.80;34.65;;;6.00;99.90;;;;;;6183737;23;20054;-77
2022/03/02 03:06:42;;;;;;;42.35;33.40;;;5.90;99.90;;;;;;6183181;23;20020;-77
2022/03/02 03:09:08;;;;;;;42.33;34.40;;;5.90;99.90;;;;;;6184013;23;20025;-77
2022/03/02 03:11:38;;;;;;;39.97;32.80;;;5.90;99.90;;;;;;6211019;23;20017;-77
2022/03/02 03:14:09;;;;;;;42.88;34.53;;;5.90;99.90;;;;;;6210564;23;20047;-77
2022/03/02 03:16:34;;;;;;;42.72;34.17;;;5.90;99.90;;;;;;6211688;23;20020;-77
2022/03/02 03:19:00;;;;;;;39.85;33.33;;;5.90;99.90;;;;;;6184353;23;20127;-77
2022/03/02 03:21:25;;;;;;;42.15;33.30;;;5.90;99.90;;;;;;6212199;23;20013;-77
2022/03/02 03:23:51;;;;;;;43.75;33.90;;;5.90;99.90;;;;;;6211539;23;20024;-77
2022/03/02 03:26:17;;;;;;;42.83;33.58;;;5.90;99.90;;;;;;6183233;23;20095;-78
2022/03/02 03:28:42;;;;;;;43.83;33.40;;;5.90;99.90;;;;;;6212341;23;20012;-77
2022/03/02 03:31:08;;;;;;;43.80;34.28;;;5.90;99.90;;;;;;6184498;23;20388;-77
2022/03/02 03:33:33;;;;;;;43.80;34.45;;;5.90;99.90;;;;;;6185080;23;20071;-77
2022/03/02 03:35:59;;;;;;;42.17;34.22;;;5.90;99.90;;;;;;6184584;23;20016;-77
2022/03/02 03:38:24;;;;;;;41.38;33.78;;;5.90;99.90;;;;;;6184665;23;20064;-78
2022/03/02 03:40:50;;;;;;;43.85;34.03;;;5.90;99.90;;;;;;6183457;23;20029;-78
2022/03/02 03:43:16;;;;;;;43.17;33.55;;;5.90;99.90;;;;;;6185557;23;20017;-78
2022/03/02 03:45:41;;;;;;;42.13;34.17;;;5.90;99.90;;;;;;6183507;23;20020;-78
2022/03/02 03:48:07;;;;;;;40.38;33.28;;;5.90;99.90;;;;;;6184853;23;20048;-78
2022/03/02 03:50:33;;;;;;;43.85;34.03;;;5.90;99.90;;;;;;6212290;23;20024;-78
2022/03/02 03:52:58;;;;;;;43.72;33.63;;;5.90;99.90;;;;;;6183659;23;20095;-78
2022/03/02 03:55:24;;;;;;;44.65;34.35;;;5.90;99.90;;;;;;6184823;23;20070;-78
2022/03/02 03:57:49;;;;;;;39.08;33.03;;;5.90;99.90;;;;;;6184616;23;20025;-78
2022/03/02 04:00:19;;;;;;;41.03;33.15;;;5.90;99.90;;;;;;6183985;23;20037;-78
2022/03/02 04:02:45;;;;;;;41.72;33.10;;;5.90;99.90;;;;;;6185001;23;20096;-78
2022/03/02 04:05:11;;;;;;;41.72;34.15;;;5.80;99.90;;;;;;6183908;23;20531;-77
2022/03/02 04:07:38;;;;;;;45.40;34.63;;;5.90;99.90;;;;;;6184373;23;20384;-78
2022/03/02 04:10:08;;;;;;;41.80;33.83;;;5.90;99.90;;;;;;6184124;23;20021;-77
2022/03/02 04:12:34;;;;;;;41.45;33.15;;;5.90;99.90;;;;;;6210184;23;20215;-78
2022/03/02 04:15:00;;;;;;;45.00;33.92;;;5.90;99.90;;;;;;6209011;23;20056;-78
2022/03/02 04:17:26;;;;;;;42.08;34.65;;;5.80;99.90;;;;;;6185679;23;20013;-78
2022/03/02 04:19:51;;;;;;;41.92;33.78;;;5.80;99.90;;;;;;6183510;23;20317;-77
2022/03/02 04:22:17;;;;;;;46.40;33.90;;;5.80;99.90;;;;;;6184795;23;20015;-78
2022/03/02 04:24:43;;;;;;;42.17;33.70;;;5.80;99.90;;;;;;6210485;23;20101;-78
2022/03/02 04:27:09;;;;;;;42.20;33.65;;;5.80;99.90;;;;;;6185983;23;20012;-77
2022/03/02 04:29:35;;;;;;;42.30;34.38;;;5.80;99.90;;;;;;6186198;23;20020;-78
2022/03/02 04:32:00;;;;;;;42.10;34.05;;;5.70;99.90;;;;;;6211521;23;20330;-77
2022/03/02 04:34:26;;;;;;;44.58;35.25;;;5.70;99.90;;;;;;6184647;23;20021;-78
2022/03/02 04:36:53;;;;;;;41.53;33.83;;;5.70;99.90;;;;;;6184104;23;20012;-78
2022/03/02 04:39:18;;;;;;;44.63;34.83;;;5.70;99.90;;;;;;6185160;23;20021;-78
2022/03/02 04:41:44;;;;;;;46.95;34.60;;;5.70;99.90;;;;;;6182930;23;20467;-78
2022/03/02 04:44:10;;;;;;;43.35;34.85;;;5.70;99.90;;;;;;6184552;23;20808;-77
2022/03/02 04:46:35;;;;;;;43.40;34.63;;;5.70;99.90;;;;;;6184407;23;20025;-77
2022/03/02 04:49:10;;;;;;;43.10;34.38;;;5.60;99.90;;;;;;6210052;23;20436;-78
2022/03/02 04:51:38;;;;;;;43.05;33.92;;;5.60;99.90;;;;;;6210830;23;20021;-78
2022/03/02 04:54:05;;;;;;;42.83;34.22;;;5.60;99.90;;;;;;6210928;23;20013;-78
2022/03/02 04:56:30;;;;;;;46.17;34.60;;;5.60;99.90;;;;;;6209293;23;20052;-77
2022/03/02 04:58:56;;;;;;;43.25;34.20;;;5.60;99.90;;;;;;6183926;23;20095;-77
2022/03/02 05:01:22;;;;;;;43.78;34.63;;;5.60;99.90;;;;;;6183894;23;20456;-78
2022/03/02 05:03:47;;;;;;;42.38;34.95;;;5.60;99.90;;;;;;6209614;23;20073;-77
2022/03/02 05:06:13;;;;;;;44.65;33.45;;;5.60;99.90;;;;;;6184642;23;20052;-77
2022/03/02 05:08:39;;;;;;;42.15;33.90;;;5.60;99.90;;;;;;6210466;23;20024;-77
2022/03/02 05:11:04;;;;;;;42.13;34.10;;;5.60;99.90;;;;;;6182188;23;20021;-77
2022/03/02 05:13:31;;;;;;;44.25;35.33;;;5.60;99.90;;;;;;6183456;23;20037;-78
2022/03/02 05:15:57;;;;;;;42.20;34.15;;;5.50;99.90;;;;;;6210900;23;20015;-78
2022/03/02 05:18:22;;;;;;;42.58;34.45;;;5.50;99.90;;;;;;6183213;23;20021;-78
2022/03/02 05:20:48;;;;;;;43.90;34.85;;;5.60;99.90;;;;;;6183789;23;20024;-78
2022/03/02 05:23:13;;;;;;;44.28;35.00;;;5.60;99.90;;;;;;6184210;23;20093;-78
2022/03/02 05:25:39;;;;;;;43.67;35.67;;;5.50;99.90;;;;;;6209477;23;20095;-77
2022/03/02 05:28:04;;;;;;;45.05;35.50;;;5.50;99.90;;;;;;6183714;23;20020;-77
2022/03/02 05:30:30;;;;;;;46.05;34.15;;;5.50;99.90;;;;;;6183980;23;20432;-77
2022/03/02 05:32:56;;;;;;;44.47;33.25;;;5.50;99.90;;;;;;6181882;23;20075;-77
2022/03/02 05:35:22;;;;;;;42.80;34.25;;;5.50;99.90;;;;;;6210661;23;20387;-77
2022/03/02 05:37:47;;;;;;;44.05;35.22;;;5.50;99.90;;;;;;6182249;23;20465;-77
2022/03/02 05:40:18;;;;;;;44.17;35.95;;;5.50;99.90;;;;;;6210646;23;20016;-77
2022/03/02 05:42:44;;;;;;;41.53;33.70;;;5.50;99.90;;;;;;6183972;23;20017;-77
2022/03/02 05:45:10;;;;;;;43.95;34.97;;;5.50;99.90;;;;;;6182786;23;20102;-78
2022/03/02 05:47:38;;;;;;;44.05;34.58;;;5.50;99.90;;;;;;6184111;23;20017;-77
2022/03/02 05:50:05;;;;;;;44.58;35.13;;;5.50;99.90;;;;;;6209981;23;20028;-77
2022/03/02 05:52:31;;;;;;;;;;;5.50;99.90;;;;;;6210409;23;20067;-77
2022/03/02 05:54:57;;;;;;;46.65;35.25;;;5.40;99.90;;;;;;6182907;23;19916;-77
2022/03/02 05:57:22;;;;;;;47.95;35.25;;;5.40;99.90;;;;;;6184268;23;20021;-77
2022/03/02 05:59:48;;;;;;;41.92;33.78;;;5.40;99.90;;;;;;6182953;23;20024;-77
2022/03/02 06:02:14;;;;;;;43.17;34.88;;;5.40;99.90;;;;;;6184196;23;20020;-77
2022/03/02 06:04:40;;;;;;;45.15;35.20;;;5.40;99.90;;;;;;6209880;23;20016;-77
2022/03/02 06:07:06;;;;;;;43.25;34.08;;;5.40;99.90;;;;;;6209390;23;20015;-77
2022/03/02 06:09:32;;;;;;;46.67;35.50;;;5.40;99.90;;;;;;6210987;23;20024;-77
2022/03/02 06:11:58;;;;;;;43.95;35.55;;;5.40;99.90;;;;;;6183582;23;20036;-77
2022/03/02 06:14:24;;;;;;;43.40;34.95;;;5.40;99.90;;;;;;6210221;23;20349;-78
2022/03/02 06:16:50;;;;;;;43.70;35.40;;;5.40;99.90;;;;;;6209484;23;20012;-78
2022/03/02 06:19:16;;;;;;;47.80;36.00;;;5.30;99.90;;;;;;6185887;23;20025;-77
2022/03/02 06:21:44;;;;;;;44.28;34.30;;;5.40;99.90;;;;;;6211537;23;20475;-78
2022/03/02 06:24:13;;;;;;;42.40;33.05;;;5.30;99.90;;;;;;6183483;23;20025;-77
2022/03/02 06:26:39;;;;;;;42.75;34.75;;;5.30;99.90;;;;;;6183811;23;20024;-77
2022/03/02 06:29:05;;;;;;;46.75;35.03;;;5.30;99.90;;;;;;6182078;23;20013;-78
2022/03/02 06:31:34;;;;;;;44.78;34.85;;;5.30;99.90;;;;;;6210892;23;20017;-77
2022/03/02 06:33:59;;;;;;;44.03;34.38;;;5.40;99.90;;;;;;6182754;23;20044;-77
2022/03/02 06:36:25;;;;;;;45.55;35.63;;;5.30;99.90;;;;;;6182459;23;20098;-78
2022/03/02 06:38:51;;;;;;;44.83;34.55;;;5.30;99.90;;;;;;6209165;23;20024;-78
2022/03/02 06:41:30;;;;;;;43.70;35.35;;;5.40;99.90;;;;;;6182879;23;20048;-78
2022/03/02 06:44:06;;;;;;;45.15;34.67;;;5.40;99.90;;;;;;6183856;23;20091;-77
2022/03/02 06:46:43;;;;;;;44.70;35.90;;;5.40;99.90;;;;;;6185149;23;20024;-80
2022/03/02 06:49:44;;;;;;;45.10;36.60;;;5.40;99.90;;;;;;6180747;23;20017;-79
2022/03/02 06:52:11;;;;;;;46.17;36.50;;;5.40;99.90;;;;;;6211948;23;20019;-79
2022/03/02 06:54:42;;;;;;;46.90;35.75;;;5.40;99.90;;;;;;6184229;23;20017;-78
2022/03/02 06:57:12;;;;;;;45.85;35.22;;;5.40;99.90;;;;;;6183619;23;20059;-76
2022/03/02 06:59:40;;;;;;;46.95;35.47;;;5.40;99.90;;;;;;6184601;23;20020;-78
2022/03/02 07:02:07;;;;;;;45.00;35.75;;;5.40;99.90;;;;;;6210331;23;20012;-77
2022/03/02 07:04:41;;;;;;;43.33;34.17;;;5.40;99.90;;;;;;6183134;23;20109;-78
2022/03/02 07:07:07;;;;;;;47.42;35.40;;;5.40;99.90;;;;;;6183049;23;20025;-77
2022/03/02 07:09:33;;;;;;;42.50;34.78;;;5.40;99.90;;;;;;6182813;23;20155;-77
2022/03/02 07:12:01;;;;;;;45.72;34.13;;;5.40;99.90;;;;;;6183779;23;20475;-77
2022/03/02 07:14:30;;;;;;;;;;;5.50;99.90;;;;;;6185939;23;20024;-78
2022/03/02 07:16:57;;;;;;;43.10;35.15;;;5.50;99.90;;;;;;6210249;23;19915;-77
2022/03/02 07:19:23;;;;;;;42.05;33.03;;;5.50;99.90;;;;;;6212025;23;20020;-78
2022/03/02 07:21:50;;;;;;;42.40;33.55;;;5.60;99.90;;;;;;6184139;23;20419;-77
2022/03/02 07:24:17;;;;;;;41.00;33.47;;;5.60;99.90;;;;;;6184026;23;20551;-76
2022/03/02 07:26:46;;;;;;;41.83;33.63;;;5.60;99.90;;;;;;6182272;23;20096;-76
2022/03/02 07:29:14;;;;;;;41.28;33.88;;;5.70;99.90;;;;;;6183403;23;20017;-77
2022/03/02 07:31:42;;;;;;;40.30;33.70;;;5.70;99.90;;;;;;6210725;23;20024;-77
2022/03/02 07:34:10;;;;;;;;;;;5.70;99.90;;;;;;6184977;23;20021;-76
2022/03/02 07:36:36;;;;;;;42.08;34.00;;;5.70;99.90;;;;;;6212038;23;19915;-76
2022/03/02 07:39:02;;;;;;;43.03;34.20;;;5.70;99.90;;;;;;6209534;23;20019;-76
2022/03/02 07:41:28;;;;;;;41.25;33.80;;;5.80;99.90;;;;;;6183268;23;20021;-76
2022/03/02 07:43:54;;;;;;;45.35;33.20;;;5.80;99.90;;;;;;6208078;23;20071;-76
2022/03/02 07:46:20;;;;;;;40.63;32.08;;;5.80;99.90;;;;;;6183240;23;20028;-76
2022/03/02 07:48:46;;;;;;;40.28;32.15;;;5.80;99.90;;;;;;6210417;23;20499;-76
2022/03/02 07:51:11;;;;;;;40.45;31.40;;;5.90;99.90;;;;;;6184571;23;20020;-76
2022/03/02 07:53:43;;;;;;;41.35;31.88;;;5.90;99.90;;;;;;6182050;23;20056;-76
2022/03/02 07:56:11;;;;;;;40.30;31.75;;;6.00;99.90;;;;;;6208976;23;20024;-76
2022/03/02 07:58:41;;;;;;;39.72;30.45;;;6.00;99.90;;;;;;6183833;23;20016;-76
2022/03/02 08:01:08;;;;;;;38.92;29.67;;;6.20;99.90;;;;;;6183896;23;20017;-76
2022/03/02 08:03:39;;;;;;;37.45;28.77;;;6.20;99.90;;;;;;6183878;23;20319;-77
2022/03/02 08:06:06;;;;;;;38.35;28.48;;;6.20;99.90;;;;;;6207574;23;20067;-75
2022/03/02 08:08:32;;;;;;;36.92;28.35;;;6.30;99.90;;;;;;6182723;23;20021;-76
2022/03/02 08:10:58;;;;;;;34.65;28.48;;;6.30;99.90;;;;;;6184870;23;20024;-76
2022/03/02 08:13:24;;;;;;;37.58;30.08;;;6.30;99.90;;;;;;6210468;23;20297;-75
2022/03/02 08:15:50;;;;;;;36.60;29.15;;;6.30;99.90;;;;;;6210096;23;20436;-74
2022/03/02 08:18:17;;;;;;;35.47;29.08;;;6.30;99.90;;;;;;6184950;23;20016;-75
2022/03/02 08:20:54;;;;;;;36.92;29.75;;;6.30;99.90;;;;;;6183084;23;20035;-75
2022/03/02 08:23:21;;;;;;;34.63;29.13;;;6.40;99.90;;;;;;6212278;23;20080;-76
2022/03/02 08:25:50;;;;;;;35.33;28.35;;;6.30;99.90;;;;;;6184736;23;20413;-76
2022/03/02 08:28:18;;;;;;;36.47;28.58;;;6.40;99.90;;;;;;6183939;23;20553;-77
2022/03/02 08:30:48;;;;;;;38.83;30.58;;;6.40;99.90;;;;;;6210122;23;20027;-78
2022/03/02 08:33:18;;;;;;;42.05;32.78;;;6.40;99.90;;;;;;6184566;23;20020;-78
2022/03/02 08:35:45;;;;;;;44.92;35.13;;;6.40;99.90;;;;;;6183358;23;20476;-78
2022/03/02 08:38:11;;;;;;;49.38;37.28;;;6.50;99.90;;;;;;6212199;23;20020;-80
2022/03/02 08:40:38;;;;;;;46.30;36.38;;;6.50;99.90;;;;;;6184987;23;20020;-78
2022/03/02 08:43:05;;;;;;;44.70;35.53;;;6.50;99.90;;;;;;6210540;23;20028;-78
2022/03/02 08:45:32;;;;;;;42.70;35.83;;;6.60;99.90;;;;;;6183544;23;20028;-78
2022/03/02 08:48:04;;;;;;;39.60;31.45;;;6.70;99.90;;;;;;6182842;23;20020;-74
2022/03/02 08:50:30;;;;;;;39.38;29.45;;;6.70;99.90;;;;;;6210854;23;20411;-77
2022/03/02 08:52:57;;;;;;;35.67;29.25;;;6.80;98.60;;;;;;6210006;23;20043;-77
2022/03/02 08:55:26;;;;;;;34.57;28.27;;;6.80;96.90;;;;;;6183591;23;20044;-77
2022/03/02 08:57:54;;;;;;;37.15;27.05;;;6.80;96.00;;;;;;6183073;23;20079;-77
2022/03/02 09:00:19;;;;;;;36.80;26.30;;;6.80;95.00;;;;;;6210925;23;20082;-76
2022/03/02 09:02:46;;;;;;;34.58;25.50;;;6.80;94.80;;;;;;6183244;23;20017;-75
2022/03/02 09:05:12;;;;;;;31.77;25.67;;;6.90;93.70;;;;;;6211426;23;20063;-79
2022/03/02 09:07:38;;;;;;;28.42;23.42;;;6.90;93.80;;;;;;6210625;23;20372;-74
2022/03/02 09:10:04;;;;;;;32.92;24.77;;;7.00;92.80;;;;;;6209695;23;20020;-75
2022/03/02 09:12:30;;;;;;;30.00;24.42;;;7.00;91.70;;;;;;6211755;23;20058;-80
2022/03/02 09:14:58;;;;;;;28.05;22.48;;;7.00;90.70;;;;;;6183883;23;20127;-80
2022/03/02 09:17:25;;;;;;;31.80;24.05;;;7.10;86.30;;;;;;6184370;23;20031;-80
2022/03/02 09:19:56;;;;;;;27.95;23.05;;;7.20;84.30;;;;;;6210948;23;20020;-80
2022/03/02 09:22:23;;;;;;;30.75;24.23;;;7.20;84.40;;;;;;6210529;23;20021;-81
2022/03/02 09:24:49;;;;;;;34.05;25.75;;;7.20;82.50;;;;;;6182525;23;20024;-81
2022/03/02 09:27:17;;;;;;;32.65;26.73;;;7.30;81.50;;;;;;6211640;23;20305;-81
2022/03/02 09:29:46;;;;;;;31.90;25.90;;;7.30;81.60;;;;;;6184187;23;20021;-80
2022/03/02 09:32:13;;;;;;;33.25;24.55;;;7.40;81.40;;;;;;6183401;23;20627;-84
2022/03/02 09:34:40;;;;;;;31.63;24.60;;;7.40;80.30;;;;;;6211230;23;20329;-80
2022/03/02 09:37:09;;;;;;;;;;;7.50;80.60;;;;;;6183169;23;20048;-80
2022/03/02 09:39:34;;;;;;;31.08;22.75;;;7.50;80.60;;;;;;6184163;23;19920;-77
2022/03/02 09:42:11;;;;;;;29.40;23.15;;;7.50;79.80;;;;;;6183809;23;20023;-75
2022/03/02 09:44:43;;;;;;;33.20;24.35;;;7.60;78.40;;;;;;6183740;23;20047;-76
2022/03/02 09:47:16;;;;;;;32.58;25.13;;;7.70;80.00;;;;;;6183413;23;20658;-75
2022/03/02 09:49:47;;;;;;;30.58;24.90;;;7.70;81.70;;;;;;6184546;23;20020;-73
2022/03/02 09:52:18;;;;;;;33.90;25.52;;;7.90;80.20;;;;;;6181712;23;20024;-74
2022/03/02 09:54:45;;;;;;;33.00;23.63;;;7.90;79.70;;;;;;6211107;23;20084;-74
2022/03/02 09:57:17;;;;;;;30.30;22.98;;;7.90;78.50;;;;;;6211385;23;20044;-74
2022/03/02 09:59:49;;;;;;;28.75;22.50;;;8.00;77.00;;;;;;6209678;23;20021;-74
2022/03/02 10:02:36;;;;;;;29.33;23.17;;;8.00;75.70;;;;;;6213547;23;20024;-79
2022/03/02 10:05:06;;;;;;;31.08;22.50;;;8.10;74.70;;;;;;6206785;23;20028;-77
2022/03/02 10:07:40;;;;;;;29.88;22.55;;;8.10;74.60;;;;;;6211345;23;20013;-77
2022/03/02 10:10:11;;;;;;;29.95;21.02;;;8.20;74.40;;;;;;6210664;23;20013;-78
2022/03/02 10:12:38;;;;;;;28.70;21.00;;;8.20;72.60;;;;;;6209779;23;20415;-77
2022/03/02 10:15:09;;;;;;;29.10;22.07;;;8.30;71.70;;;;;;6182855;23;20027;-76
2022/03/02 10:17:38;;;;;;;30.30;21.00;;;8.30;71.20;;;;;;6183685;23;20302;-75
2022/03/02 10:20:10;;;;;;;28.33;20.83;;;8.40;70.60;;;;;;6212267;23;20052;-76
2022/03/02 10:22:57;;;;;;;27.95;21.13;;;8.40;69.30;;;;;;6213716;23;20019;-76
2022/03/02 10:25:34;;;;;;;29.00;21.17;;;8.40;68.50;;;;;;6186335;23;20449;-76
2022/03/02 10:28:02;;;;;;;27.95;20.83;;;8.40;69.80;;;;;;6211634;23;20027;-74
2022/03/02 10:30:36;;;;;;;27.50;20.60;;;8.50;68.40;;;;;;6211721;23;20364;-73
2022/03/02 10:33:24;;;;;;;25.85;20.45;;;8.50;69.20;;;;;;6212429;23;20088;-74
2022/03/02 10:35:57;;;;;;;33.95;21.13;;;8.60;69.70;;;;;;6212415;23;20017;-74
2022/03/02 10:38:31;;;;;;;25.88;19.83;;;8.70;68.80;;;;;;6213006;23;20399;-78
2022/03/02 10:41:00;;;;;;;28.20;20.23;;;8.70;67.10;;;;;;6184226;23;20023;-75
2022/03/02 10:43:53;;;;;;;26.23;20.70;;;8.70;67.00;;;;;;6184082;23;20024;-76
2022/03/02 10:46:21;;;;;;;26.10;19.88;;;8.80;67.00;;;;;;6170118;23;20379;-76
2022/03/02 10:49:07;;;;;;;26.17;19.85;;;8.90;66.90;;;;;;6209749;23;20075;-76
2022/03/02 10:51:34;;;;;;;26.42;19.55;;;8.90;66.10;;;;;;6185234;23;20024;-74
2022/03/02 10:54:05;;;;;;;26.05;20.05;;;9.00;66.50;;;;;;6211125;23;20476;-78
2022/03/02 10:56:38;;;;;;;27.10;20.20;;;9.00;65.40;;;;;;6185134;23;20094;-77
2022/03/02 10:59:11;;;;;;;28.17;20.98;;;9.10;65.20;;;;;;6185084;23;20092;-74
2022/03/02 11:01:37;;;;;;;26.27;19.70;;;9.10;65.10;;;;;;6211569;23;20017;-79
2022/03/02 11:04:06;;;;;;;33.47;21.27;;;9.10;65.40;;;;;;6184916;23;20059;-77
2022/03/02 11:06:33;;;;;;;26.48;19.75;;;9.20;65.50;;;;;;6185040;23;20021;-78
2022/03/02 11:09:00;;;;;;;24.93;19.30;;;9.20;65.30;;;;;;6183668;23;20066;-76
2022/03/02 11:11:27;;;;;;;26.63;20.30;;;9.30;64.80;;;;;;6212103;23;20024;-77
2022/03/02 11:13:54;;;;;;;26.77;20.85;;;9.30;64.50;;;;;;6211210;23;20047;-77
2022/03/02 11:16:22;;;;;;;27.83;21.13;;;9.40;64.20;;;;;;6210606;23;20491;-77
2022/03/02 11:18:51;;;;;;;28.20;20.83;;;9.40;64.00;;;;;;6211706;23;20012;-76
2022/03/02 11:21:29;;;;;;;25.33;20.27;;;9.50;64.30;;;;;;6184848;23;20044;-76
2022/03/02 11:23:57;;;;;;;29.92;20.40;;;9.50;64.60;;;;;;6184313;23;20016;-77
2022/03/02 11:26:26;;;;;;;28.15;20.98;;;9.60;63.40;;;;;;6184175;23;20074;-74
2022/03/02 11:29:00;;;;;;;29.25;20.95;;;9.60;61.70;;;;;;6210880;23;20021;-74
2022/03/02 11:31:32;;;;;;;23.92;18.95;;;9.70;60.90;;;;;;6184093;23;20029;-79
2022/03/02 11:34:27;;;;;;;26.02;18.75;;;9.60;60.60;;;;;;6184516;23;20095;-75
2022/03/02 11:36:59;;;;;;;25.30;19.38;;;9.70;60.00;;;;;;6183452;23;20020;-74
2022/03/02 11:39:26;;;;;;;23.70;18.58;;;9.70;59.40;;;;;;6185321;23;20035;-75
2022/03/02 11:41:53;;;;;;;;;;;9.70;59.20;;;;;;6184907;23;20059;-77
2022/03/02 11:44:44;;;;;;;25.45;19.42;;;9.70;58.80;;;;;;6210713;23;19922;-76
2022/03/02 11:47:13;;;;;;;26.58;20.13;;;9.80;60.30;;;;;;6185016;23;20027;-80
2022/03/02 11:49:54;;;;;;;24.27;19.23;;;9.80;59.90;;;;;;6183943;23;20128;-76
2022/03/02 11:52:27;;;;;;;26.42;20.42;;;9.80;59.30;;;;;;6185013;23;20021;-78
2022/03/02 11:55:09;;;;;;;25.52;19.63;;;9.90;59.20;;;;;;6185259;23;20013;-76
2022/03/02 11:57:46;;;;;;;25.15;19.88;;;9.90;59.30;;;;;;6210692;23;20020;-76
2022/03/02 12:00:23;;;;;;;26.33;18.40;;;10.00;59.10;;;;;;6185022;23;20152;-74
2022/03/02 12:02:52;;;;;;;;;;;10.10;59.90;;;;;;6210376;23;20044;-75
2022/03/02 12:05:20;;;;;;;23.98;18.73;;;10.10;59.50;;;;;;6210709;23;19916;-74
2022/03/02 12:07:51;;;;;;;24.13;18.88;;;10.20;60.70;;;;;;6211098;23;20201;-74
2022/03/02 12:10:25;;;;;;;23.48;18.30;;;10.20;59.30;;;;;;6185275;23;20055;-74
2022/03/02 12:12:53;;;;;;;22.52;17.00;;;10.20;59.00;;;;;;6182757;23;20020;-73
2022/03/02 12:15:19;;;;;;;;;;;10.30;59.90;;;;;;6212471;23;20420;-76
2022/03/02 12:17:46;;;;;;;658.65;189.63;;;10.30;59.40;;;;;;6211274;23;20352;-76
2022/03/02 12:20:18;;;;;;;219.15;90.15;;;10.20;68.60;;;;;;6183907;23;20027;-78
2022/03/02 12:22:50;;;;;;;350.90;115.78;;;10.00;99.90;;;;;;6184299;23;20009;-76
2022/03/02 12:25:18;;;;;;;473.23;131.60;;;9.40;99.90;;;;;;6184429;23;20021;-75
2022/03/02 12:28:05;;;;;;;28.40;20.67;;;9.30;99.90;;;;;;6209896;23;20492;-75
2022/03/02 12:30:33;;;;;;;397.05;128.63;;;9.50;99.90;;;;;;6184951;23;20020;-75
2022/03/02 12:32:59;;;;;;;63.38;34.47;;;9.40;99.90;;;;;;6183513;23;20088;-75
2022/03/02 12:35:26;;;;;;;41.42;24.83;;;9.10;99.90;;;;;;6185016;23;20052;-75
2022/03/02 12:37:54;;;;;;;607.22;184.45;;;8.90;99.90;;;;;;6184130;23;20087;-74
2022/03/02 12:40:20;;;;;;;89.63;42.92;;;8.80;99.90;;;;;;6183738;23;20024;-78
2022/03/02 12:42:47;;;;;;;111.25;52.45;;;8.60;99.90;;;;;;6183527;23;20039;-79